createdAt,value
2023-03-06T00:02:20.409Z,43.47
2023-03-06T00:04:46.970Z,44.20
2023-03-06T00:07:13.450Z,43.17
2023-03-06T00:09:39.930Z,44.55
2023-03-06T00:12:06.799Z,44.78
2023-03-06T00:14:33.300Z,45.44
2023-03-06T00:16:59.779Z,42.85
2023-03-06T00:19:27.443Z,43.69
2023-03-06T00:21:53.956Z,43.98
2023-03-06T00:24:20.453Z,44.78
2023-03-06T00:26:46.954Z,45.29
2023-03-06T00:29:13.510Z,46.38
2023-03-06T00:31:40.025Z,45.52
2023-03-06T00:34:06.711Z,44.43
2023-03-06T00:36:33.329Z,45.62
2023-03-06T00:38:59.860Z,45.26
2023-03-06T00:41:26.369Z,45.99
2023-03-06T00:43:52.832Z,46.58
2023-03-06T00:46:19.411Z,48.54
2023-03-06T00:48:45.915Z,45.97
2023-03-06T00:51:14.021Z,46.75
2023-03-06T00:53:40.595Z,47.37
2023-03-06T00:56:07.496Z,47.57
2023-03-06T00:58:33.968Z,46.45
2023-03-06T01:01:00.652Z,45.95
2023-03-06T01:03:27.122Z,47.52
2023-03-06T01:05:53.688Z,47.89
2023-03-06T01:08:20.214Z,47.53
2023-03-06T01:10:46.731Z,48.34
2023-03-06T01:13:13.281Z,48.01
2023-03-06T01:15:39.753Z,47.79
2023-03-06T01:18:07.474Z,48.82
2023-03-06T01:20:33.972Z,48.45
2023-03-06T01:23:00.453Z,47.72
2023-03-06T01:25:27.057Z,48.75
2023-03-06T01:27:53.596Z,47.50
2023-03-06T01:30:20.598Z,49.52
2023-03-06T01:32:47.563Z,47.53
2023-03-06T01:35:14.053Z,50.28
2023-03-06T01:37:41.198Z,49.94
2023-03-06T01:40:09.989Z,49.81
2023-03-06T01:42:36.622Z,49.08
2023-03-06T01:45:14.971Z,49.60
2023-03-06T01:47:41.491Z,48.37
2023-03-06T01:50:11.751Z,48.91
2023-03-06T01:52:52.797Z,47.95
2023-03-06T01:55:30.964Z,50.07
2023-03-06T01:58:01.465Z,51.55
2023-03-06T02:00:29.837Z,50.56
2023-03-06T02:03:11.222Z,49.14
2023-03-06T02:05:40.440Z,51.14
2023-03-06T02:08:10.592Z,51.68
2023-03-06T02:10:37.634Z,51.61
2023-03-06T02:13:04.292Z,49.28
2023-03-06T02:15:30.983Z,51.02
2023-03-06T02:17:59.802Z,50.02
2023-03-06T02:20:43.202Z,49.42
2023-03-06T02:23:23.378Z,49.10
2023-03-06T02:25:52.831Z,48.53
2023-03-06T02:28:22.657Z,49.49
2023-03-06T02:30:51.767Z,49.89
2023-03-06T02:33:22.464Z,50.35
2023-03-06T02:36:03.583Z,49.27
2023-03-06T02:38:40.953Z,49.49
2023-03-06T02:41:08.749Z,51.12
2023-03-06T02:43:38.670Z,50.05
2023-03-06T02:46:06.013Z,50.19
2023-03-06T02:48:32.897Z,50.00
2023-03-06T02:50:59.463Z,49.64
2023-03-06T02:53:26.400Z,49.36
2023-03-06T02:55:52.944Z,50.07
2023-03-06T02:58:19.481Z,49.33
2023-03-06T03:00:47.734Z,49.20
2023-03-06T03:03:14.347Z,49.32
2023-03-06T03:05:41.038Z,48.82
2023-03-06T03:08:07.679Z,48.94
2023-03-06T03:10:34.212Z,50.46
2023-03-06T03:13:00.710Z,49.02
2023-03-06T03:15:28.857Z,50.12
2023-03-06T03:17:55.363Z,51.28
2023-03-06T03:20:22.700Z,50.58
2023-03-06T03:22:55.062Z,50.69
2023-03-06T03:25:23.571Z,50.23
2023-03-06T03:27:50.709Z,49.29
2023-03-06T03:30:17.586Z,52.19
2023-03-06T03:32:44.230Z,50.49
2023-03-06T03:35:11.589Z,50.24
2023-03-06T03:37:38.515Z,49.35
2023-03-06T03:40:05.605Z,52.01
2023-03-06T03:42:32.151Z,52.74
2023-03-06T03:44:58.650Z,50.71
2023-03-06T03:47:25.274Z,50.77
2023-03-06T03:49:51.766Z,51.84
2023-03-06T03:52:18.288Z,50.38
2023-03-06T03:54:44.821Z,52.08
2023-03-06T03:57:11.453Z,52.68
2023-03-06T03:59:37.969Z,51.32
2023-03-06T04:02:04.516Z,52.24
2023-03-06T04:04:31.089Z,50.56
2023-03-06T04:06:57.692Z,51.95
2023-03-06T04:09:24.326Z,51.23
2023-03-06T04:11:50.848Z,52.42
2023-03-06T04:14:17.320Z,52.03
2023-03-06T04:16:43.795Z,51.55
2023-03-06T04:19:10.323Z,51.91
2023-03-06T04:21:36.860Z,50.35
2023-03-06T04:24:03.689Z,51.98
2023-03-06T04:26:30.198Z,53.30
2023-03-06T04:28:56.741Z,52.08
2023-03-06T04:31:23.368Z,53.54
2023-03-06T04:33:49.938Z,53.49
2023-03-06T04:36:30.039Z,53.99
2023-03-06T04:38:56.943Z,53.18
2023-03-06T04:41:23.818Z,53.37
2023-03-06T04:43:50.661Z,52.65
2023-03-06T04:46:17.232Z,52.09
2023-03-06T04:48:47.656Z,52.06
2023-03-06T04:51:15.294Z,52.87
2023-03-06T04:53:41.835Z,51.91
2023-03-06T04:56:08.614Z,52.48
2023-03-06T04:58:35.189Z,52.44
2023-03-06T05:01:01.921Z,52.58
2023-03-06T05:03:28.440Z,52.62
2023-03-06T05:05:54.956Z,54.48
2023-03-06T05:08:21.646Z,54.72
2023-03-06T05:10:55.351Z,52.71
2023-03-06T05:13:22.013Z,51.55
2023-03-06T05:15:48.510Z,51.30
2023-03-06T05:18:15.304Z,51.93
2023-03-06T05:20:41.829Z,53.39
2023-03-06T05:23:08.461Z,54.36
2023-03-06T05:25:34.954Z,53.73
2023-03-06T05:28:01.477Z,55.15
2023-03-06T05:30:27.950Z,53.85
2023-03-06T05:32:54.501Z,53.51
2023-03-06T05:35:22.910Z,53.15
2023-03-06T05:37:50.266Z,52.52
2023-03-06T05:40:19.811Z,53.73
2023-03-06T05:42:46.413Z,55.24
2023-03-06T05:45:14.139Z,56.65
2023-03-06T05:47:43.158Z,55.00
2023-03-06T05:50:10.731Z,53.06
2023-03-06T05:52:38.570Z,53.42
2023-03-06T05:55:05.520Z,53.36
2023-03-06T05:57:32.010Z,52.65
2023-03-06T05:59:58.472Z,54.71
2023-03-06T06:02:25.055Z,54.27
2023-03-06T06:04:51.555Z,52.77
2023-03-06T06:07:18.151Z,54.65
2023-03-06T06:09:44.986Z,53.22
2023-03-06T06:12:12.006Z,52.88
2023-03-06T06:14:38.506Z,53.48
2023-03-06T06:17:05.020Z,56.65
2023-03-06T06:19:31.771Z,55.13
2023-03-06T06:21:58.874Z,55.03
2023-03-06T06:24:26.267Z,55.15
2023-03-06T06:26:54.929Z,54.25
2023-03-06T06:29:23.091Z,53.79
2023-03-06T06:31:49.979Z,54.76
2023-03-06T06:34:17.816Z,53.80
2023-03-06T06:36:44.444Z,53.45
2023-03-06T06:39:15.284Z,52.52
2023-03-06T06:41:59.466Z,53.81
2023-03-06T06:44:28.379Z,55.53
2023-03-06T06:49:41.464Z,56.65
2023-03-06T06:52:07.986Z,55.18
2023-03-06T06:54:34.853Z,56.63
2023-03-06T06:57:01.654Z,56.98
2023-03-06T06:59:28.154Z,56.62
2023-03-06T07:01:54.649Z,57.25
2023-03-06T07:04:21.236Z,58.02
2023-03-06T07:06:47.876Z,56.59
2023-03-06T07:09:14.546Z,56.89
2023-03-06T07:11:41.860Z,54.59
2023-03-06T07:14:08.688Z,56.56
2023-03-06T07:16:35.403Z,57.71
2023-03-06T07:19:02.403Z,57.68
2023-03-06T07:21:29.057Z,57.65
2023-03-06T07:23:56.110Z,57.34
2023-03-06T07:26:23.636Z,56.20
2023-03-06T07:28:52.860Z,57.15
2023-03-06T07:31:21.806Z,57.65
2023-03-06T07:33:49.590Z,56.40
2023-03-06T07:36:16.298Z,56.27
2023-03-06T07:38:42.831Z,56.53
2023-03-06T07:41:09.971Z,57.32
2023-03-06T07:43:36.567Z,53.61
2023-03-06T07:46:03.087Z,51.99
2023-03-06T07:48:30.611Z,50.71
2023-03-06T07:51:07.326Z,50.75
2023-03-06T07:53:35.426Z,52.18
2023-03-06T07:56:04.672Z,50.15
2023-03-06T07:58:33.375Z,52.56
2023-03-06T08:01:07.416Z,51.05
2023-03-06T08:03:34.389Z,52.84
2023-03-06T08:06:27.188Z,52.94
2023-03-06T08:08:55.470Z,52.69
2023-03-06T08:11:25.451Z,52.74
2023-03-06T08:13:52.240Z,54.47
2023-03-06T08:16:23.688Z,54.40
2023-03-06T08:18:50.891Z,55.44
2023-03-06T08:21:20.981Z,53.37
2023-03-06T08:23:48.090Z,53.41
2023-03-06T08:26:21.595Z,52.14
2023-03-06T08:28:48.352Z,54.97
2023-03-06T08:31:24.360Z,54.12
2023-03-06T08:33:51.048Z,56.06
2023-03-06T08:36:17.563Z,55.32
2023-03-06T08:38:44.126Z,56.53
2023-03-06T08:41:10.701Z,54.15
2023-03-06T08:43:37.182Z,53.16
2023-03-06T08:46:03.995Z,52.94
2023-03-06T08:48:30.861Z,52.81
2023-03-06T08:50:57.508Z,52.06
2023-03-06T08:53:33.439Z,52.18
2023-03-06T08:56:35.966Z,51.97
2023-03-06T08:59:05.124Z,51.17
2023-03-06T09:01:35.271Z,52.27
2023-03-06T09:04:05.746Z,51.53
2023-03-06T09:06:35.684Z,51.46
2023-03-06T09:09:02.469Z,51.25
2023-03-06T09:11:29.150Z,51.12
2023-03-06T09:13:57.233Z,51.72
2023-03-06T09:16:25.031Z,51.46
2023-03-06T09:18:51.744Z,51.60
2023-03-06T09:21:20.075Z,52.21
2023-03-06T09:23:46.609Z,52.50
2023-03-06T09:26:13.201Z,53.30
2023-03-06T09:28:40.751Z,51.90
2023-03-06T09:31:12.083Z,51.40
2023-03-06T09:33:39.226Z,50.61
2023-03-06T09:36:08.140Z,49.76
2023-03-06T09:38:35.239Z,48.96
2023-03-06T09:41:14.760Z,49.57
2023-03-06T09:43:47.022Z,49.50
2023-03-06T09:46:32.449Z,49.40
2023-03-06T09:49:32.856Z,50.63
2023-03-06T09:52:02.294Z,49.00
2023-03-06T09:54:53.841Z,51.01
2023-03-06T09:57:28.906Z,50.23
2023-03-06T10:00:04.506Z,49.74
2023-03-06T10:02:40.646Z,48.48
2023-03-06T10:05:16.251Z,50.12
2023-03-06T10:07:49.014Z,49.17
2023-03-06T10:10:26.673Z,49.03
2023-03-06T10:13:00.400Z,48.72
2023-03-06T10:15:34.659Z,48.75
2023-03-06T10:18:03.003Z,48.42
2023-03-06T10:20:41.052Z,49.52
2023-03-06T10:23:42.258Z,48.95
2023-03-06T10:26:21.114Z,48.56
2023-03-06T10:29:17.003Z,48.29
2023-03-06T10:31:50.831Z,48.73
2023-03-06T10:34:23.088Z,48.79
2023-03-06T10:36:50.204Z,48.69
2023-03-06T10:39:22.346Z,48.70
2023-03-06T10:41:50.101Z,48.44
2023-03-06T10:44:21.602Z,48.71
2023-03-06T10:46:51.096Z,47.98
2023-03-06T10:49:25.619Z,45.44
2023-03-06T10:52:21.605Z,47.32
2023-03-06T10:54:48.138Z,47.52
2023-03-06T10:57:32.165Z,46.77
2023-03-06T11:00:02.774Z,47.64
2023-03-06T11:02:31.015Z,46.72
2023-03-06T11:05:00.461Z,46.69
2023-03-06T11:07:35.135Z,47.05
2023-03-06T11:10:17.316Z,47.27
2023-03-06T11:13:05.307Z,48.54
2023-03-06T11:15:31.872Z,47.69
2023-03-06T11:18:26.562Z,46.74
2023-03-06T11:20:55.390Z,46.04
2023-03-06T11:23:29.410Z,48.21
2023-03-06T11:26:24.157Z,47.86
2023-03-06T11:29:00.920Z,46.82
2023-03-06T11:31:35.011Z,44.34
2023-03-06T11:34:18.424Z,45.25
2023-03-06T11:37:09.070Z,46.36
2023-03-06T11:39:48.699Z,44.19
2023-03-06T11:42:37.535Z,42.54
2023-03-06T11:45:25.927Z,40.99
2023-03-06T11:48:08.944Z,37.91
2023-03-06T11:50:44.672Z,39.02
2023-03-06T11:53:18.454Z,38.87
2023-03-06T11:56:09.188Z,38.04
2023-03-06T11:59:05.060Z,39.37
2023-03-06T12:01:49.966Z,40.95
2023-03-06T12:04:25.537Z,41.56
2023-03-06T12:06:52.023Z,42.59
2023-03-06T12:09:30.512Z,40.75
2023-03-06T12:12:18.386Z,41.38
2023-03-06T12:15:19.297Z,42.82
2023-03-06T12:17:57.590Z,40.02
2023-03-06T12:21:05.037Z,40.53
2023-03-06T12:24:02.698Z,39.59
2023-03-06T12:26:54.858Z,37.04
2023-03-06T12:29:52.095Z,37.67
2023-03-06T12:32:31.746Z,35.58
2023-03-06T12:35:25.473Z,36.92
2023-03-06T12:38:18.789Z,37.60
2023-03-06T12:41:16.393Z,38.16
2023-03-06T12:43:45.827Z,38.26
2023-03-06T12:46:20.301Z,37.31
2023-03-06T12:49:23.201Z,33.98
2023-03-06T12:51:59.359Z,36.35
2023-03-06T12:54:30.936Z,34.40
2023-03-06T12:57:00.507Z,33.25
2023-03-06T12:59:37.485Z,33.81
2023-03-06T13:02:31.003Z,36.22
2023-03-06T13:05:03.594Z,35.58
2023-03-06T13:07:50.093Z,34.38
2023-03-06T13:10:31.749Z,34.66
2023-03-06T13:13:01.314Z,34.46
2023-03-06T13:16:30.594Z,34.73
2023-03-06T13:19:19.533Z,34.56
2023-03-06T13:21:54.860Z,34.86
2023-03-06T13:24:23.783Z,32.99
2023-03-06T13:26:54.957Z,33.44
2023-03-06T13:29:36.723Z,32.58
2023-03-06T13:32:03.471Z,30.83
2023-03-06T13:34:32.944Z,30.63
2023-03-06T13:37:17.900Z,31.97
2023-03-06T13:39:56.286Z,31.82
2023-03-06T13:42:31.573Z,31.95
2023-03-06T13:45:08.120Z,34.07
2023-03-06T13:47:55.761Z,32.11
2023-03-06T13:50:38.856Z,30.43
2023-03-06T13:53:25.745Z,29.84
2023-03-06T13:56:08.683Z,28.53
2023-03-06T13:58:49.843Z,26.29
2023-03-06T14:01:40.283Z,24.43
2023-03-06T14:04:29.472Z,24.20
2023-03-06T14:06:58.994Z,24.33
2023-03-06T14:09:41.143Z,22.77
2023-03-06T14:12:24.392Z,21.33
2023-03-06T14:14:56.783Z,21.52
2023-03-06T14:17:33.015Z,21.07
2023-03-06T14:20:18.234Z,22.06
2023-03-06T14:22:44.747Z,21.27
2023-03-06T14:25:29.926Z,22.64
2023-03-06T14:28:02.977Z,22.35
2023-03-06T14:30:35.689Z,21.88
2023-03-06T14:33:10.762Z,22.07
2023-03-06T14:35:37.948Z,22.01
2023-03-06T14:38:06.400Z,20.08
2023-03-06T14:40:42.920Z,22.78
2023-03-06T14:43:28.008Z,22.30
2023-03-06T14:45:57.373Z,22.64
2023-03-06T14:48:35.945Z,21.78
2023-03-06T14:51:02.492Z,22.71
2023-03-06T14:53:33.268Z,19.69
2023-03-06T14:56:07.590Z,20.11
2023-03-06T14:58:53.692Z,21.14
2023-03-06T15:01:36.563Z,21.66
2023-03-06T15:04:35.391Z,20.68
2023-03-06T15:07:11.201Z,20.24
2023-03-06T15:09:38.857Z,19.69
2023-03-06T15:12:20.430Z,20.03
2023-03-06T15:14:57.031Z,19.83
2023-03-06T15:17:29.246Z,19.16
2023-03-06T15:19:59.268Z,19.37
2023-03-06T15:22:36.088Z,19.91
2023-03-06T15:25:24.154Z,19.20
2023-03-06T15:27:52.394Z,19.08
2023-03-06T15:30:31.452Z,17.96
2023-03-06T15:33:22.556Z,19.17
2023-03-06T15:35:59.197Z,19.95
2023-03-06T15:38:46.191Z,20.02
2023-03-06T15:41:34.317Z,20.51
2023-03-06T15:44:03.670Z,18.46
2023-03-06T15:46:30.182Z,16.92
2023-03-06T15:48:57.892Z,17.08
2023-03-06T15:51:25.337Z,19.58
2023-03-06T15:53:54.989Z,18.98
2023-03-06T15:56:31.946Z,18.44
2023-03-06T15:59:01.136Z,17.88
2023-03-06T16:01:30.314Z,17.64
2023-03-06T16:03:57.733Z,16.86
2023-03-06T16:06:24.767Z,15.84
2023-03-06T16:08:53.118Z,15.80
2023-03-06T16:11:35.319Z,15.36
2023-03-06T16:14:17.152Z,14.61
2023-03-06T16:16:43.667Z,14.77
2023-03-06T16:19:25.369Z,13.68
2023-03-06T16:21:52.742Z,13.69
2023-03-06T16:24:19.261Z,13.13
2023-03-06T16:26:48.995Z,14.11
2023-03-06T16:29:21.852Z,14.48
2023-03-06T16:31:48.589Z,14.95
2023-03-06T16:34:16.123Z,16.06
2023-03-06T16:36:42.663Z,15.96
2023-03-06T16:39:21.114Z,15.52
2023-03-06T16:41:47.850Z,16.16
2023-03-06T16:44:14.659Z,15.94
2023-03-06T16:46:43.989Z,15.71
2023-03-06T16:49:16.655Z,14.54
2023-03-06T16:51:44.075Z,13.70
2023-03-06T16:54:10.967Z,13.40
2023-03-06T16:56:37.440Z,13.79
2023-03-06T16:59:03.955Z,14.28
2023-03-06T17:01:30.582Z,13.45
2023-03-06T17:03:58.209Z,12.95
2023-03-06T17:06:24.688Z,12.43
2023-03-06T17:08:54.599Z,12.45
2023-03-06T17:11:22.429Z,12.69
2023-03-06T17:13:49.188Z,12.82
2023-03-06T17:16:16.366Z,13.14
2023-03-06T17:18:45.202Z,12.66
2023-03-06T17:21:13.903Z,13.28
2023-03-06T17:23:40.425Z,13.55
2023-03-06T17:26:10.319Z,13.00
2023-03-06T17:28:38.323Z,13.39
2023-03-06T17:31:19.801Z,13.27
2023-03-06T17:33:47.219Z,13.58
2023-03-06T17:36:15.906Z,13.04
2023-03-06T17:38:43.098Z,13.52
2023-03-06T17:41:12.024Z,12.92
2023-03-06T17:43:39.298Z,12.60
2023-03-06T17:46:11.351Z,12.79
2023-03-06T17:48:38.896Z,12.84
2023-03-06T17:51:05.844Z,12.46
2023-03-06T17:53:33.237Z,12.39
2023-03-06T17:55:59.739Z,14.30
2023-03-06T17:58:27.279Z,15.13
2023-03-06T18:00:54.298Z,14.83
2023-03-06T18:03:20.861Z,16.00
2023-03-06T18:06:01.980Z,15.36
2023-03-06T18:08:28.535Z,15.04
2023-03-06T18:11:02.346Z,14.77
2023-03-06T18:13:28.843Z,15.68
2023-03-06T18:15:55.379Z,15.57
2023-03-06T18:18:22.638Z,15.45
2023-03-06T18:20:49.127Z,15.10
2023-03-06T18:23:15.732Z,14.35
2023-03-06T18:25:42.868Z,13.83
2023-03-06T18:28:09.470Z,14.62
2023-03-06T18:30:38.241Z,14.11
2023-03-06T18:33:05.142Z,14.25
2023-03-06T18:35:33.514Z,12.36
2023-03-06T18:38:00.874Z,11.94
2023-03-06T18:40:27.400Z,12.04
2023-03-06T18:42:54.341Z,12.48
2023-03-06T18:45:21.357Z,13.76
2023-03-06T18:47:47.886Z,14.45
2023-03-06T18:50:14.386Z,14.74
2023-03-06T18:52:40.858Z,14.93
2023-03-06T18:55:07.567Z,15.63
2023-03-06T18:57:34.138Z,16.42
2023-03-06T19:00:01.095Z,15.05
2023-03-06T19:02:27.643Z,15.22
2023-03-06T19:04:54.116Z,14.72
2023-03-06T19:07:20.609Z,15.91
2023-03-06T19:09:50.226Z,15.05
2023-03-06T19:12:16.897Z,14.10
2023-03-06T19:14:44.405Z,14.84
2023-03-06T19:17:10.924Z,14.77
2023-03-06T19:19:37.458Z,14.83
2023-03-06T19:22:03.966Z,14.35
2023-03-06T19:24:30.624Z,14.36
2023-03-06T19:26:57.171Z,13.76
2023-03-06T19:29:23.660Z,14.17
2023-03-06T19:31:50.250Z,15.42
2023-03-06T19:34:16.776Z,15.50
2023-03-06T19:36:43.244Z,15.66
2023-03-06T19:39:12.578Z,15.68
2023-03-06T19:41:39.063Z,15.99
2023-03-06T19:44:05.571Z,15.24
2023-03-06T19:46:32.764Z,15.61
2023-03-06T19:49:02.103Z,15.61
2023-03-06T19:51:29.325Z,16.27
2023-03-06T19:53:56.894Z,16.31
2023-03-06T19:56:26.952Z,16.51
2023-03-06T19:58:53.804Z,16.00
2023-03-06T20:01:22.443Z,16.25
2023-03-06T20:03:49.188Z,16.98
2023-03-06T20:06:18.317Z,16.68
2023-03-06T20:08:46.440Z,15.78
2023-03-06T20:11:25.521Z,16.01
2023-03-06T20:13:52.638Z,16.41
2023-03-06T20:16:19.667Z,16.96
2023-03-06T20:18:46.463Z,17.85
2023-03-06T20:21:14.195Z,16.51
2023-03-06T20:23:41.303Z,16.56
2023-03-06T20:26:10.959Z,16.74
2023-03-06T20:28:39.356Z,16.36
2023-03-06T20:31:11.767Z,17.50
2023-03-06T20:33:38.432Z,16.54
2023-03-06T20:36:13.925Z,17.04
2023-03-06T20:38:43.451Z,16.94
2023-03-06T20:41:24.029Z,17.25
2023-03-06T20:43:51.492Z,16.90
2023-03-06T20:46:19.742Z,16.77
2023-03-06T20:48:49.086Z,17.65
2023-03-06T20:51:19.901Z,17.71
2023-03-06T20:53:48.308Z,17.23
2023-03-06T20:56:17.334Z,17.12
2023-03-06T20:58:44.055Z,17.06
2023-03-06T21:01:28.199Z,16.58
2023-03-06T21:03:58.286Z,17.34
2023-03-06T21:06:28.953Z,17.27
2023-03-06T21:08:59.999Z,17.07
2023-03-06T21:11:26.936Z,18.01
2023-03-06T21:13:54.758Z,18.22
2023-03-06T21:16:24.268Z,18.07
2023-03-06T21:18:51.723Z,17.96
2023-03-06T21:21:20.559Z,17.73
2023-03-06T21:23:48.901Z,17.63
2023-03-06T21:26:18.816Z,17.77
2023-03-06T21:28:45.708Z,17.70
2023-03-06T21:31:14.066Z,17.27
2023-03-06T21:33:41.084Z,17.09
2023-03-06T21:36:07.841Z,17.79
2023-03-06T21:38:35.129Z,17.78
2023-03-06T21:41:17.913Z,19.00
2023-03-06T21:43:44.722Z,18.44
2023-03-06T21:46:11.981Z,20.47
2023-03-06T21:48:41.578Z,21.71
2023-03-06T21:51:14.616Z,22.70
2023-03-06T21:53:46.005Z,21.16
2023-03-06T21:56:14.783Z,22.70
2023-03-06T21:58:41.439Z,22.88
2023-03-06T22:01:13.006Z,22.07
2023-03-06T22:03:39.916Z,20.88
2023-03-06T22:06:13.312Z,19.09
2023-03-06T22:08:40.572Z,18.96
2023-03-06T22:11:27.018Z,18.25
2023-03-06T22:13:53.681Z,19.13
2023-03-06T22:16:20.317Z,18.25
2023-03-06T22:18:49.972Z,19.75
2023-03-06T22:21:19.306Z,19.44
2023-03-06T22:23:50.639Z,19.31
2023-03-06T22:26:20.173Z,18.26
2023-03-06T22:28:46.849Z,17.40
2023-03-06T22:31:16.137Z,17.91
2023-03-06T22:33:52.145Z,17.68
2023-03-06T22:36:21.656Z,17.65
2023-03-06T22:38:52.804Z,17.44
2023-03-06T22:41:19.343Z,18.03
2023-03-06T22:43:45.983Z,17.35
2023-03-06T22:46:17.236Z,17.70
2023-03-06T22:48:44.946Z,17.04
2023-03-06T22:51:17.925Z,17.08
2023-03-06T22:53:45.255Z,17.56
2023-03-06T22:56:15.401Z,16.84
2023-03-06T22:58:42.024Z,16.74
2023-03-06T23:01:12.076Z,17.34
2023-03-06T23:03:43.581Z,16.63
2023-03-06T23:06:13.663Z,16.95
2023-03-06T23:08:40.828Z,16.60
2023-03-06T23:11:13.511Z,16.82
2023-03-06T23:13:40.028Z,16.65
2023-03-06T23:16:08.883Z,16.51
2023-03-06T23:18:37.448Z,16.05
2023-03-06T23:21:12.069Z,16.81
2023-03-06T23:23:39.471Z,16.64
2023-03-06T23:26:07.756Z,16.70
2023-03-06T23:28:34.428Z,16.33
2023-03-06T23:31:13.650Z,16.36
2023-03-06T23:33:40.261Z,16.47
2023-03-06T23:36:12.277Z,16.09
2023-03-06T23:38:39.813Z,16.64
2023-03-06T23:41:13.917Z,16.73
2023-03-06T23:43:40.492Z,16.65
2023-03-06T23:46:07.147Z,17.29
2023-03-06T23:48:35.415Z,16.26
2023-03-06T23:51:09.852Z,15.64
2023-03-06T23:53:36.347Z,16.12
2023-03-06T23:56:05.760Z,16.24
2023-03-06T23:58:32.562Z,16.01
